createdAt,value
2018-07-06T09:47:21.092Z,23.84
2018-07-06T09:49:49.764Z,23.57
2018-07-06T09:52:18.466Z,23.19
2018-07-06T09:56:44.957Z,22.78
2018-07-06T09:59:13.692Z,23.02
2018-07-06T10:01:56.565Z,23.15
2018-07-06T10:04:25.257Z,23.06
2018-07-06T10:06:53.886Z,23.19
2018-07-06T10:09:22.484Z,22.90
2018-07-06T10:11:58.789Z,22.66
2018-07-06T10:14:27.377Z,22.59
2018-07-06T10:16:56.017Z,22.81
2018-07-06T10:19:24.746Z,22.99
2018-07-06T10:22:12.047Z,23.05
2018-07-06T10:24:40.612Z,23.11
2018-07-06T10:27:09.419Z,23.05
2018-07-06T10:30:04.006Z,23.10
2018-07-06T10:32:42.894Z,23.21
2018-07-06T10:35:11.637Z,23.33
2018-07-06T10:37:40.329Z,23.54
2018-07-06T10:40:09.089Z,23.57
2018-07-06T10:42:38.770Z,23.42
2018-07-06T10:45:07.445Z,23.38
2018-07-06T10:47:36.047Z,23.49
2018-07-06T10:50:04.697Z,23.54
2018-07-06T10:52:38.971Z,23.65
2018-07-06T10:55:07.607Z,23.91
2018-07-06T10:57:36.320Z,23.94
2018-07-06T11:00:05.002Z,24.09
2018-07-06T11:02:42.142Z,24.11
2018-07-06T11:05:10.880Z,24.13
2018-07-06T11:07:39.511Z,24.03
2018-07-06T11:10:08.203Z,24.05
2018-07-06T11:12:39.078Z,24.28
2018-07-06T11:15:07.786Z,24.36
2018-07-06T11:17:36.466Z,24.35
2018-07-06T11:20:05.059Z,24.39
2018-07-06T11:22:50.635Z,24.44
2018-07-06T11:25:19.230Z,24.22
2018-07-06T11:27:48.381Z,24.36
2018-07-06T11:30:17.044Z,24.54
2018-07-06T11:32:55.072Z,24.78
2018-07-06T11:35:23.837Z,24.83
2018-07-06T11:37:52.459Z,24.89
2018-07-06T11:40:21.250Z,25.00
2018-07-06T11:42:49.927Z,25.17
2018-07-06T11:45:18.600Z,25.56
2018-07-06T11:47:47.327Z,25.93
2018-07-06T11:50:15.994Z,25.93
2018-07-06T11:53:01.458Z,26.00
2018-07-06T11:55:30.231Z,26.15
2018-07-06T11:57:58.874Z,26.42
2018-07-06T12:00:27.614Z,26.81
2018-07-06T12:03:22.830Z,26.83
2018-07-06T12:05:51.498Z,27.26
2018-07-06T12:08:20.213Z,27.34
2018-07-06T12:10:48.926Z,26.89
2018-07-06T12:13:22.158Z,26.35
2018-07-06T12:15:51.896Z,26.74
2018-07-06T12:18:20.612Z,26.52
2018-07-06T12:20:49.272Z,26.62
2018-07-06T12:23:26.124Z,26.97
2018-07-06T12:25:54.735Z,26.68
2018-07-06T12:28:23.399Z,26.79
2018-07-06T12:30:51.992Z,27.13
2018-07-06T12:33:24.013Z,27.34
2018-07-06T12:35:52.720Z,27.65
2018-07-06T12:38:21.471Z,27.89
2018-07-06T12:40:50.101Z,29.26
2018-07-06T12:43:21.890Z,30.61
2018-07-06T12:45:50.519Z,31.76
2018-07-06T12:48:19.248Z,33.42
2018-07-06T12:50:47.857Z,34.13
2018-07-06T12:53:17.451Z,35.05
2018-07-06T12:55:46.121Z,34.35
2018-07-06T12:58:14.844Z,34.24
2018-07-06T13:00:44.132Z,34.52
2018-07-06T13:03:20.067Z,34.86
2018-07-06T13:05:48.794Z,35.92
2018-07-06T13:08:17.466Z,36.35
2018-07-06T13:10:46.080Z,35.86
2018-07-06T13:13:14.707Z,35.46
2018-07-06T13:15:43.381Z,34.82
2018-07-06T13:18:11.979Z,35.56
2018-07-06T13:20:40.670Z,33.89
2018-07-06T13:23:09.506Z,35.53
2018-07-06T13:25:38.109Z,36.01
2018-07-06T13:28:07.030Z,34.71
2018-07-06T13:30:35.621Z,33.19
2018-07-06T13:33:12.173Z,32.63
2018-07-06T13:35:40.804Z,33.66
2018-07-06T13:38:09.441Z,34.82
2018-07-06T13:40:38.034Z,36.21
2018-07-06T13:43:10.767Z,37.64
2018-07-06T13:45:39.342Z,36.82
2018-07-06T13:48:08.033Z,34.21
2018-07-06T13:50:36.598Z,33.83
2018-07-06T13:53:19.867Z,33.79
2018-07-06T13:55:48.466Z,33.02
2018-07-06T13:58:17.293Z,31.93
2018-07-06T14:00:45.861Z,30.48
2018-07-06T14:03:28.135Z,29.72
2018-07-06T14:05:57.009Z,31.31
2018-07-06T14:08:25.591Z,30.49
2018-07-06T14:10:54.436Z,29.65
2018-07-06T14:13:30.613Z,29.92
2018-07-06T14:15:59.610Z,29.84
2018-07-06T14:18:28.535Z,29.57
2018-07-06T14:20:57.290Z,30.28
2018-07-06T14:23:33.671Z,29.31
2018-07-06T14:26:02.509Z,29.19
2018-07-06T14:28:31.470Z,29.11
2018-07-06T14:31:00.174Z,29.11
2018-07-06T14:33:42.754Z,29.36
2018-07-06T14:36:11.706Z,29.10
2018-07-06T14:38:40.607Z,28.76
2018-07-06T14:41:09.379Z,28.97
2018-07-06T14:43:42.684Z,28.92
2018-07-06T14:46:11.620Z,28.70
2018-07-06T14:48:40.564Z,28.81
2018-07-06T14:51:09.462Z,29.25
2018-07-06T14:53:59.584Z,30.27
2018-07-06T14:56:29.665Z,31.50
2018-07-06T14:58:58.644Z,31.96
2018-07-06T15:01:27.582Z,31.97
2018-07-06T15:03:58.349Z,30.57
2018-07-06T15:06:27.013Z,29.98
2018-07-06T15:08:56.814Z,29.78
2018-07-06T15:11:25.418Z,29.71
2018-07-06T15:13:54.223Z,29.87
2018-07-06T15:16:22.812Z,29.45
2018-07-06T15:18:51.395Z,29.25
2018-07-06T15:21:19.969Z,29.04
2018-07-06T15:23:49.648Z,29.57
2018-07-06T15:26:18.355Z,31.19
2018-07-06T15:28:47.046Z,31.38
2018-07-06T15:31:15.848Z,32.00
2018-07-06T15:33:44.503Z,31.68
2018-07-06T15:36:39.802Z,30.54
2018-07-06T15:39:08.526Z,29.76
2018-07-06T15:41:37.233Z,29.20
2018-07-06T15:44:05.954Z,30.53
2018-07-06T15:46:34.679Z,30.88
2018-07-06T15:49:03.434Z,30.34
2018-07-06T15:51:32.040Z,30.94
2018-07-06T15:54:00.732Z,31.33
2018-07-06T15:56:31.387Z,31.65
2018-07-06T15:58:59.950Z,32.87
2018-07-06T16:01:28.536Z,35.04
2018-07-06T16:03:57.186Z,36.73
2018-07-06T16:06:33.195Z,37.99
2018-07-06T16:09:01.943Z,38.65
2018-07-06T16:11:30.543Z,37.98
2018-07-06T16:13:59.156Z,36.03
2018-07-06T16:16:27.923Z,34.36
2018-07-06T16:18:56.623Z,32.77
2018-07-06T16:21:25.301Z,31.78
2018-07-06T16:23:53.939Z,31.84
2018-07-06T16:26:25.988Z,32.08
2018-07-06T16:28:54.830Z,32.56
2018-07-06T16:31:23.498Z,33.42
2018-07-06T16:33:52.314Z,32.60
2018-07-06T16:36:21.144Z,31.10
2018-07-06T16:38:49.874Z,31.23
2018-07-06T16:41:18.685Z,32.33
2018-07-06T16:43:47.302Z,33.21
2018-07-06T16:46:33.006Z,33.78
2018-07-06T16:49:01.569Z,33.51
2018-07-06T16:51:30.142Z,32.11
2018-07-06T16:53:58.761Z,30.46
2018-07-06T16:56:48.284Z,29.14
2018-07-06T16:59:16.973Z,28.05
2018-07-06T17:01:45.708Z,27.50
2018-07-06T17:04:14.269Z,27.50
2018-07-06T17:06:43.075Z,27.90
2018-07-06T17:09:11.841Z,27.96
2018-07-06T17:11:40.462Z,28.50
2018-07-06T17:14:09.119Z,29.83
2018-07-06T17:16:37.882Z,30.18
2018-07-06T17:19:06.437Z,29.02
2018-07-06T17:21:35.145Z,28.32
2018-07-06T17:24:03.853Z,27.73
2018-07-06T17:26:32.514Z,27.29
2018-07-06T17:29:01.209Z,26.65
2018-07-06T17:31:30.008Z,26.31
2018-07-06T17:33:58.691Z,26.29
2018-07-06T17:36:27.454Z,26.92
2018-07-06T17:38:56.024Z,28.10
2018-07-06T17:41:24.839Z,29.11
2018-07-06T17:43:53.721Z,29.83
2018-07-06T17:46:23.399Z,30.53
2018-07-06T17:48:52.088Z,30.52
2018-07-06T17:51:20.821Z,30.52
2018-07-06T17:53:49.472Z,30.27
2018-07-06T17:56:18.320Z,30.25
2018-07-06T17:58:46.869Z,30.16
2018-07-06T18:01:15.551Z,29.98
2018-07-06T18:03:44.334Z,30.21
2018-07-06T18:06:12.914Z,30.58
2018-07-06T18:08:42.656Z,30.77
2018-07-06T18:11:11.371Z,30.27
2018-07-06T18:13:40.063Z,29.15
2018-07-06T18:16:08.911Z,27.92
2018-07-06T18:18:37.541Z,27.26
2018-07-06T18:21:06.218Z,26.66
2018-07-06T18:23:35.008Z,26.09
2018-07-06T18:26:03.753Z,25.68
2018-07-06T18:28:32.358Z,25.50
2018-07-06T18:31:01.106Z,25.46
2018-07-06T18:33:29.806Z,25.42
2018-07-06T18:35:58.542Z,25.33
2018-07-06T18:38:27.178Z,25.04
2018-07-06T18:40:55.858Z,24.68
2018-07-06T18:43:24.399Z,24.24
2018-07-06T18:45:53.041Z,23.78
2018-07-06T18:48:21.741Z,23.42
2018-07-06T18:50:50.425Z,23.10
2018-07-06T18:53:18.944Z,22.85
2018-07-06T18:55:47.659Z,22.74
2018-07-06T18:58:16.222Z,22.73
2018-07-06T19:00:45.026Z,22.67
2018-07-06T19:03:13.546Z,22.44
2018-07-06T19:05:42.258Z,22.06
2018-07-06T19:08:10.909Z,21.63
2018-07-06T19:10:39.694Z,21.24
2018-07-06T19:13:08.371Z,20.84
2018-07-06T19:15:37.044Z,20.47
2018-07-06T19:18:05.885Z,20.10
2018-07-06T19:20:34.538Z,19.77
2018-07-06T19:23:03.275Z,19.50
2018-07-06T19:25:31.925Z,19.43
2018-07-06T19:28:00.569Z,19.26
2018-07-06T19:30:29.154Z,19.13
2018-07-06T19:32:57.874Z,18.98
2018-07-06T19:35:26.510Z,18.72
2018-07-06T19:37:55.066Z,18.40
2018-07-06T19:40:23.633Z,18.14
2018-07-06T19:42:52.546Z,18.11
2018-07-06T19:45:21.272Z,18.08
2018-07-06T19:47:49.983Z,18.02
2018-07-06T19:50:18.538Z,17.89
2018-07-06T19:52:47.195Z,17.71
2018-07-06T19:55:16.980Z,17.45
2018-07-06T19:57:45.684Z,17.24
2018-07-06T20:00:14.340Z,17.02
2018-07-06T20:02:42.861Z,16.82
2018-07-06T20:05:11.618Z,16.62
2018-07-06T20:07:40.276Z,16.61
2018-07-06T20:10:08.793Z,16.62
2018-07-06T20:12:37.446Z,16.54
2018-07-06T20:15:06.115Z,16.47
2018-07-06T20:17:35.761Z,16.44
2018-07-06T20:20:04.509Z,16.34
2018-07-06T20:22:33.215Z,16.37
2018-07-06T20:25:01.754Z,16.37
2018-07-06T20:27:30.466Z,16.32
2018-07-06T20:29:59.084Z,16.27
2018-07-06T20:32:27.751Z,16.20
2018-07-06T20:34:56.449Z,16.09
2018-07-06T20:37:25.090Z,16.02
2018-07-06T20:39:53.616Z,15.93
2018-07-06T20:42:22.488Z,15.88
2018-07-06T20:44:51.265Z,15.95
2018-07-06T20:47:20.024Z,15.93
2018-07-06T20:49:48.709Z,15.82
2018-07-06T20:52:17.527Z,15.68
2018-07-06T20:54:47.150Z,15.56
2018-07-06T20:57:15.910Z,15.51
2018-07-06T20:59:44.547Z,15.45
2018-07-06T21:02:13.274Z,15.38
2018-07-06T21:04:41.862Z,15.32
2018-07-06T21:07:10.495Z,15.42
2018-07-06T21:09:39.112Z,15.46
2018-07-06T21:12:07.833Z,15.51
2018-07-06T21:14:36.480Z,15.52
2018-07-06T21:17:05.235Z,15.40
2018-07-06T21:19:33.966Z,15.39
2018-07-06T21:22:02.805Z,15.33
2018-07-06T21:24:31.574Z,15.33
2018-07-06T21:27:00.247Z,15.36
2018-07-06T21:29:28.812Z,15.34
2018-07-06T21:31:57.518Z,15.23
2018-07-06T21:34:26.211Z,15.06
2018-07-06T21:36:54.841Z,14.93
2018-07-06T21:39:23.420Z,14.80
2018-07-06T21:41:52.077Z,14.79
2018-07-06T21:44:20.695Z,14.76
2018-07-06T21:46:49.330Z,14.75
2018-07-06T21:49:18.059Z,14.67
2018-07-06T21:51:46.779Z,14.57
2018-07-06T21:54:15.316Z,14.50
2018-07-06T21:56:44.028Z,14.41
2018-07-06T21:59:12.784Z,14.34
2018-07-06T22:01:41.344Z,14.30
2018-07-06T22:04:10.044Z,14.27
2018-07-06T22:06:38.713Z,14.19
2018-07-06T22:09:08.599Z,14.11
2018-07-06T22:11:37.318Z,13.99
2018-07-06T22:14:05.923Z,13.87
2018-07-06T22:16:34.509Z,13.74
2018-07-06T22:19:03.225Z,13.62
2018-07-06T22:21:31.830Z,13.49
2018-07-06T22:24:00.467Z,13.41
2018-07-06T22:26:29.115Z,13.35
2018-07-06T22:28:57.769Z,13.29
2018-07-06T22:31:26.493Z,13.21
2018-07-06T22:33:55.149Z,13.14
2018-07-06T22:36:23.800Z,13.05
2018-07-06T22:38:53.617Z,13.00
2018-07-06T22:41:22.298Z,12.95
2018-07-06T22:43:51.088Z,12.88
2018-07-06T22:46:19.775Z,13.03
2018-07-06T22:48:48.470Z,13.29
2018-07-06T22:51:17.035Z,13.53
2018-07-06T22:53:45.762Z,13.71
2018-07-06T22:56:14.385Z,13.85
2018-07-06T22:58:43.033Z,13.98
2018-07-06T23:01:11.625Z,13.98
2018-07-06T23:03:40.343Z,14.01
2018-07-06T23:06:09.008Z,14.05
2018-07-06T23:08:37.647Z,14.09
2018-07-06T23:11:06.179Z,13.99
2018-07-06T23:13:34.849Z,13.96
2018-07-06T23:16:03.565Z,13.85
2018-07-06T23:18:32.203Z,13.64
2018-07-06T23:21:00.719Z,13.49
2018-07-06T23:23:29.438Z,13.41
2018-07-06T23:25:58.070Z,13.25
2018-07-06T23:28:26.762Z,13.16
2018-07-06T23:30:56.415Z,13.10
2018-07-06T23:33:25.054Z,13.05
2018-07-06T23:35:53.713Z,12.97
2018-07-06T23:38:26.046Z,13.02
2018-07-06T23:40:54.712Z,12.98
2018-07-06T23:43:23.385Z,13.08
2018-07-06T23:45:52.024Z,13.21
2018-07-06T23:48:20.772Z,13.24
2018-07-06T23:50:49.446Z,13.16
2018-07-06T23:53:17.979Z,13.04
2018-07-06T23:55:46.615Z,12.84
2018-07-06T23:58:15.388Z,12.79
